createdAt,value
2022-10-05T00:04:10.708Z,64.45
2022-10-05T00:09:29.259Z,64.18
2022-10-05T00:14:21.449Z,64.57
2022-10-05T00:19:21.360Z,64.77
2022-10-05T00:24:21.310Z,64.82
2022-10-05T00:29:21.202Z,64.86
2022-10-05T00:34:21.174Z,64.93
2022-10-05T00:39:21.102Z,64.99
2022-10-05T00:44:21.066Z,65.05
2022-10-05T00:49:20.967Z,65.12
2022-10-05T00:54:20.906Z,65.18
2022-10-05T00:59:20.819Z,65.25
2022-10-05T01:04:20.799Z,65.29
2022-10-05T01:09:20.698Z,65.35
2022-10-05T01:14:20.646Z,65.41
2022-10-05T01:19:20.572Z,65.51
2022-10-05T01:24:20.482Z,65.59
2022-10-05T01:29:20.419Z,65.69
2022-10-05T01:34:20.366Z,65.75
2022-10-05T01:39:20.322Z,65.82
2022-10-05T01:44:20.229Z,65.90
2022-10-05T01:49:20.145Z,65.94
2022-10-05T01:54:20.174Z,65.98
2022-10-05T01:59:20.025Z,66.03
2022-10-05T02:04:42.753Z,66.08
2022-10-05T02:09:20.895Z,66.15
2022-10-05T02:14:19.829Z,66.17
2022-10-05T02:19:19.739Z,66.20
2022-10-05T02:24:21.085Z,66.26
2022-10-05T02:29:19.621Z,66.34
2022-10-05T02:34:19.546Z,66.41
2022-10-05T02:39:19.481Z,66.45
2022-10-05T02:44:19.420Z,66.50
2022-10-05T02:49:19.357Z,66.55
2022-10-05T02:54:19.299Z,66.57
2022-10-05T02:59:19.174Z,66.61
2022-10-05T03:04:19.153Z,66.65
2022-10-05T03:09:19.061Z,66.72
2022-10-05T03:14:19.002Z,66.75
2022-10-05T03:19:18.934Z,66.82
2022-10-05T03:24:18.882Z,66.90
2022-10-05T03:29:18.777Z,66.93
2022-10-05T03:34:18.744Z,66.97
2022-10-05T03:39:18.680Z,66.96
2022-10-05T03:44:18.614Z,67.04
2022-10-05T03:49:18.537Z,67.06
2022-10-05T03:54:18.457Z,67.12
2022-10-05T03:59:18.415Z,67.18
2022-10-05T04:04:20.182Z,67.25
2022-10-05T04:09:18.248Z,67.31
2022-10-05T04:14:18.180Z,67.37
2022-10-05T04:19:33.829Z,67.09
2022-10-05T04:24:26.743Z,67.49
2022-10-05T04:29:26.681Z,67.63
2022-10-05T04:34:26.609Z,67.66
2022-10-05T04:39:26.521Z,67.72
2022-10-05T04:44:26.463Z,67.72
2022-10-05T04:49:26.378Z,67.72
2022-10-05T04:54:26.343Z,67.75
2022-10-05T04:59:26.274Z,67.78
2022-10-05T05:04:26.212Z,67.75
2022-10-05T05:09:26.179Z,67.74
2022-10-05T05:14:26.086Z,67.69
2022-10-05T05:19:26.029Z,67.69
2022-10-05T05:24:25.928Z,67.70
2022-10-05T05:29:25.924Z,67.70
2022-10-05T05:34:25.806Z,67.71
2022-10-05T05:39:25.726Z,67.74
2022-10-05T05:44:25.673Z,67.83
2022-10-05T05:49:25.589Z,67.82
2022-10-05T05:54:25.534Z,67.82
2022-10-05T05:59:25.484Z,67.69
2022-10-05T06:04:25.385Z,67.52
2022-10-05T06:09:25.328Z,67.38
2022-10-05T06:14:25.252Z,67.15
2022-10-05T06:19:25.182Z,67.07
2022-10-05T06:24:25.247Z,66.95
2022-10-05T06:29:25.058Z,66.92
2022-10-05T06:34:24.999Z,66.67
2022-10-05T06:39:24.986Z,66.46
2022-10-05T06:44:24.850Z,66.33
2022-10-05T06:49:24.809Z,65.97
2022-10-05T06:54:24.734Z,63.15
2022-10-05T06:59:24.670Z,63.04
2022-10-05T07:04:24.582Z,62.59
2022-10-05T07:09:24.798Z,63.41
2022-10-05T07:14:24.475Z,60.80
2022-10-05T07:19:24.382Z,60.03
2022-10-05T07:24:24.334Z,60.08
2022-10-05T07:29:24.243Z,57.03
2022-10-05T07:34:24.192Z,55.74
2022-10-05T07:39:36.791Z,58.54
2022-10-05T07:44:25.042Z,60.04
2022-10-05T07:49:23.989Z,60.82
2022-10-05T07:54:24.063Z,61.23
2022-10-05T07:59:23.830Z,61.31
2022-10-05T08:04:23.774Z,61.21
2022-10-05T08:09:23.721Z,61.41
2022-10-05T08:14:23.617Z,61.39
2022-10-05T08:19:23.590Z,61.54
2022-10-05T08:24:23.506Z,61.33
2022-10-05T08:29:23.520Z,60.90
2022-10-05T08:34:23.374Z,60.62
2022-10-05T08:39:23.304Z,60.50
2022-10-05T08:44:23.266Z,60.58
2022-10-05T08:49:23.234Z,60.49
2022-10-05T08:54:23.105Z,60.33
2022-10-05T08:59:23.029Z,59.99
2022-10-05T09:04:22.955Z,59.74
2022-10-05T09:09:22.897Z,59.32
2022-10-05T09:14:22.818Z,59.04
2022-10-05T09:19:22.948Z,58.98
2022-10-05T09:24:22.753Z,58.53
2022-10-05T09:29:22.637Z,58.28
2022-10-05T09:34:22.554Z,57.71
2022-10-05T09:39:22.503Z,56.21
2022-10-05T09:44:22.484Z,54.48
2022-10-05T09:49:22.344Z,49.17
2022-10-05T09:54:22.282Z,39.31
2022-10-05T09:59:22.279Z,35.91
2022-10-05T10:04:22.149Z,34.75
2022-10-05T10:09:22.076Z,35.87
2022-10-05T10:14:22.029Z,42.75
2022-10-05T10:19:21.966Z,38.00
2022-10-05T10:24:21.886Z,34.66
2022-10-05T10:29:21.841Z,35.44
2022-10-05T10:34:21.754Z,34.18
2022-10-05T10:39:21.679Z,31.91
2022-10-05T10:44:21.607Z,29.34
2022-10-05T10:49:21.547Z,28.93
2022-10-05T10:54:21.490Z,27.10
2022-10-05T10:59:21.425Z,28.81
2022-10-05T11:04:21.332Z,29.43
2022-10-05T11:09:21.284Z,29.04
2022-10-05T11:14:21.213Z,35.76
2022-10-05T11:19:21.702Z,39.94
2022-10-05T11:24:21.064Z,42.08
2022-10-05T11:29:21.049Z,43.65
2022-10-05T11:34:20.938Z,39.53
2022-10-05T11:39:20.875Z,34.12
2022-10-05T11:44:20.811Z,30.96
2022-10-05T11:49:20.909Z,31.30
2022-10-05T11:54:20.673Z,30.70
2022-10-05T11:59:20.617Z,31.11
2022-10-05T12:04:20.536Z,31.48
2022-10-05T12:09:20.468Z,30.99
2022-10-05T12:14:20.397Z,32.39
2022-10-05T12:19:20.341Z,32.65
2022-10-05T12:24:24.581Z,32.65
2022-10-05T12:29:21.216Z,33.70
2022-10-05T12:34:20.158Z,37.27
2022-10-05T12:39:20.058Z,39.30
2022-10-05T12:44:20.077Z,39.80
2022-10-05T12:49:19.934Z,40.98
2022-10-05T12:54:19.844Z,41.61
2022-10-05T12:59:19.787Z,42.27
2022-10-05T13:04:19.726Z,42.89
2022-10-05T13:09:19.698Z,43.83
2022-10-05T13:14:19.576Z,44.69
2022-10-05T13:19:19.652Z,44.22
2022-10-05T13:24:19.481Z,45.17
2022-10-05T13:29:19.393Z,44.55
2022-10-05T13:34:19.398Z,44.80
2022-10-05T13:39:19.264Z,45.07
2022-10-05T13:44:19.197Z,45.19
2022-10-05T13:49:19.099Z,44.98
2022-10-05T13:54:19.048Z,45.18
2022-10-05T13:59:18.981Z,45.45
2022-10-05T14:04:18.914Z,45.73
2022-10-05T14:09:18.845Z,46.02
2022-10-05T14:14:18.846Z,46.21
2022-10-05T14:19:18.729Z,46.54
2022-10-05T14:24:32.064Z,46.80
2022-10-05T14:29:19.577Z,47.05
2022-10-05T14:34:18.517Z,47.46
2022-10-05T14:39:18.441Z,47.88
2022-10-05T14:44:18.366Z,48.28
2022-10-05T14:49:18.306Z,48.62
2022-10-05T14:54:18.246Z,48.87
2022-10-05T14:59:18.192Z,49.07
2022-10-05T15:04:18.105Z,49.25
2022-10-05T15:09:18.062Z,49.40
2022-10-05T15:14:18.023Z,49.58
2022-10-05T15:19:17.901Z,49.81
2022-10-05T15:24:17.827Z,50.03
2022-10-05T15:29:17.768Z,50.26
2022-10-05T15:34:17.698Z,50.51
2022-10-05T15:39:17.621Z,50.72
2022-10-05T15:44:17.559Z,51.00
2022-10-05T15:49:17.482Z,51.31
2022-10-05T15:54:17.420Z,51.61
2022-10-05T15:59:17.888Z,51.91
2022-10-05T16:04:17.287Z,52.23
2022-10-05T16:09:17.199Z,52.40
2022-10-05T16:14:17.164Z,52.61
2022-10-05T16:19:17.108Z,52.79
2022-10-05T16:24:18.842Z,53.10
2022-10-05T16:29:16.958Z,53.28
2022-10-05T16:34:16.879Z,53.47
2022-10-05T16:39:16.808Z,53.69
2022-10-05T16:44:16.757Z,53.92
2022-10-05T16:49:18.059Z,54.16
2022-10-05T16:54:16.612Z,54.41
2022-10-05T16:59:16.531Z,54.72
2022-10-05T17:04:16.505Z,54.99
2022-10-05T17:09:16.431Z,55.33
2022-10-05T17:14:16.343Z,55.64
2022-10-05T17:19:16.314Z,55.89
2022-10-05T17:24:16.218Z,56.07
2022-10-05T17:29:16.140Z,56.22
2022-10-05T17:34:17.893Z,56.34
2022-10-05T17:39:15.968Z,56.53
2022-10-05T17:44:15.940Z,56.67
2022-10-05T17:49:15.901Z,56.81
2022-10-05T17:54:15.798Z,57.02
2022-10-05T17:59:15.720Z,57.18
2022-10-05T18:04:15.681Z,57.34
2022-10-05T18:09:15.586Z,57.45
2022-10-05T18:14:15.538Z,57.57
2022-10-05T18:19:15.482Z,57.66
2022-10-05T18:24:15.405Z,57.80
2022-10-05T18:29:15.305Z,58.00
2022-10-05T18:34:15.262Z,58.19
2022-10-05T18:39:15.192Z,58.39
2022-10-05T18:44:15.119Z,58.59
2022-10-05T18:49:15.082Z,58.74
2022-10-05T18:54:14.976Z,58.88
2022-10-05T18:59:14.920Z,58.95
2022-10-05T19:04:14.859Z,59.08
2022-10-05T19:09:14.770Z,59.22
2022-10-05T19:14:14.732Z,59.35
2022-10-05T19:19:14.653Z,59.52
2022-10-05T19:24:14.585Z,59.67
2022-10-05T19:29:14.515Z,59.82
2022-10-05T19:34:14.526Z,59.88
2022-10-05T19:39:14.348Z,59.98
2022-10-05T19:44:14.302Z,60.08
2022-10-05T19:49:14.243Z,60.21
2022-10-05T19:54:14.178Z,60.34
2022-10-05T19:59:14.102Z,60.50
2022-10-05T20:04:14.039Z,60.67
2022-10-05T20:09:13.983Z,60.86
2022-10-05T20:14:13.918Z,60.98
2022-10-05T20:19:13.835Z,61.10
2022-10-05T20:24:13.771Z,61.25
2022-10-05T20:29:13.700Z,61.37
2022-10-05T20:34:13.622Z,61.50
2022-10-05T20:39:13.557Z,61.66
2022-10-05T20:44:13.464Z,61.78
2022-10-05T20:49:13.436Z,61.87
2022-10-05T20:54:13.335Z,62.05
2022-10-05T20:59:13.296Z,62.06
2022-10-05T21:04:13.245Z,62.06
2022-10-05T21:09:13.157Z,62.11
2022-10-05T21:14:13.098Z,62.15
2022-10-05T21:19:13.143Z,62.19
2022-10-05T21:24:12.922Z,62.20
2022-10-05T21:29:13.154Z,62.21
2022-10-05T21:34:12.806Z,62.33
2022-10-05T21:39:12.760Z,62.42
2022-10-05T21:44:12.687Z,62.49
2022-10-05T21:49:16.080Z,62.56
2022-10-05T21:54:13.549Z,62.60
2022-10-05T21:59:12.497Z,62.67
2022-10-05T22:04:12.454Z,62.75
2022-10-05T22:09:12.358Z,62.76
2022-10-05T22:14:12.271Z,62.81
2022-10-05T22:19:12.203Z,62.82
2022-10-05T22:24:12.121Z,62.87
2022-10-05T22:29:12.163Z,62.74
2022-10-05T22:34:12.027Z,62.64
2022-10-05T22:39:13.814Z,62.63
2022-10-05T22:44:11.858Z,62.60
2022-10-05T22:49:11.807Z,62.61
2022-10-05T22:54:11.792Z,62.65
2022-10-05T22:59:11.662Z,62.68
2022-10-05T23:04:11.590Z,62.73
2022-10-05T23:09:11.523Z,62.83
2022-10-05T23:14:11.452Z,62.97
2022-10-05T23:19:11.408Z,63.06
2022-10-05T23:24:11.318Z,63.15
2022-10-05T23:29:11.254Z,63.26
2022-10-05T23:34:11.196Z,63.28
2022-10-05T23:39:11.110Z,63.32
2022-10-05T23:44:11.063Z,63.36
2022-10-05T23:49:11.014Z,63.30
2022-10-05T23:54:10.907Z,63.65
2022-10-05T23:59:10.842Z,63.83
